Flughafen Köln/Bonn

Aus VATSIM Germany
Version vom 15. Mai 2020, 14:03 Uhr von VATSIM Germany (Diskussion | Beiträge) (Die Seite wurde neu angelegt: „{{Baustelle}} {{Flughafen |ICAO=EDDK }} {{Navigationsleiste Flughäfen EDLL}} Kategorie:RG Düsseldorf“)

(Unterschied) ← Nächstältere Version | Bestätigte Version (Unterschied) | Aktuelle Version (Unterschied) | Nächstjüngere Version → (Unterschied)
Wechseln zu:Navigation, Suche
UnderCon icon.svg.pngDieser Artikel ist noch im Aufbau. Der Artikel kann daher unvollständig sein oder Fehler enthalten!


Cologne Bonn Airport
ICAO / IATA EDDK / CGN
Koordinaten N50°51′57″  E007°8′34″
Höhe 92 m / 302 ft
Wetter EDDK 251850Z AUTO 25012KT CAVOK 18/06 Q1017 BECMG 25007KT
Pisten
Platzfrequenzen
Nur für Flugsimulationszwecke!

.


Informationen für Piloten und Lotsen
Pilotenbriefing

Standard Operating Procedures (SOP)

Letters of Agreement (LoAs)

Airport Charts


Vorlage:Navigationsleiste Flughäfen EDLL